DG3GAI-6 Weather Reports


time (UTC)temp
F
wind
direction
speed
knots
gust
knots
rain 1hr
in
rain 24hr
in
rain mn
in
humidity
%
barometer
mb
20260502162821 66 0 0.0 0.0 0.00 0.00 0.00 43 1021.0
20260502122723 61 0 0.0 0.0 0.00 0.00 0.00 46 1023.0
20260502115716 61 0 0.0 0.0 0.00 0.00 0.00 45 1024.0
20260502112709 61 0 0.0 0.0 0.00 0.00 0.00 47 1024.0
20260502105701 61 0 0.0 0.0 0.00 0.00 0.00 44 1024.0
20260502102654 61 0 0.0 0.0 0.00 0.00 0.00 46 1024.0
20260502065603 52 0 0.0 0.0 0.00 0.00 0.00 62 1025.0
20260502062556 51 0 0.0 0.0 0.00 0.00 0.00 61 1026.0
20260502055549 50 0 0.0 0.0 0.00 0.00 0.00 60 1026.0
20260502052542 49 0 0.0 0.0 0.00 0.00 0.00 61 1026.0
20260502045534 49 0 0.0 0.0 0.00 0.00 0.00 58 1025.0
20260502042527 48 0 0.0 0.0 0.00 0.00 0.00 57 1025.0
20260502035520 48 0 0.0 0.0 0.00 0.00 0.00 57 1026.0
20260502032512 49 0 0.0 0.0 0.00 0.00 0.00 56 1026.0
20260502025505 49 0 0.0 0.0 0.00 0.00 0.00 55 1026.0
20260502022458 49 0 0.0 0.0 0.00 0.00 0.00 55 1026.0
20260502015451 48 0 0.0 0.0 0.00 0.00 0.00 55 1026.0
20260502012443 49 0 0.0 0.0 0.00 0.00 0.00 55 1026.0
20260502005436 50 0 0.0 0.0 0.00 0.00 0.00 53 1026.0
20260502002429 51 0 0.0 0.0 0.00 0.00 0.00 51 1026.0
20260501235421 51 0 0.0 0.0 0.00 0.00 0.00 51 1027.0
20260501232414 52 0 0.0 0.0 0.00 0.00 0.00 50 1027.0
20260501225407 52 0 0.0 0.0 0.00 0.00 0.00 50 1027.0
20260501222400 52 0 0.0 0.0 0.00 0.00 0.00 49 1027.0
20260501215352 53 0 0.0 0.0 0.00 0.00 0.00 48 1027.0
20260501212345 53 0 0.0 0.0 0.00 0.00 0.00 48 1027.0
20260501205338 54 0 0.0 0.0 0.00 0.00 0.00 47 1027.0
20260501202331 55 0 0.0 0.0 0.00 0.00 0.00 47 1027.0
20260501195323 55 0 0.0 0.0 0.00 0.00 0.00 47 1026.0
20260501192316 57 0 0.0 0.0 0.00 0.00 0.00 47 1026.0
20260501185309 58 0 0.0 0.0 0.00 0.00 0.00 46 1026.0
20260501182305 59 0 0.0 0.0 0.00 0.00 0.00 44 1026.0
20260501175254 61 0 0.0 0.0 0.00 0.00 0.00 41 1026.0
20260501172247 62 0 0.0 0.0 0.00 0.00 0.00 34 1026.0
20260501165240 63 0 0.0 0.0 0.00 0.00 0.00 33 1026.0